< < Back
Terminal Aerodrome Forecast


Current Version              Previous Versions:   1  2  3  4  5  6  7  8  9  

Terminal Aerodrome Forecast

550
FTUS42 KILM 282327
TAFILM
TAF
KILM 282327Z 2900/2924 06007KT P6SM SCT040 SCT150
     FM290300 03005KT P6SM FEW150 SCT250
     FM291300 03010KT P6SM SCT030 SCT250
     FM291800 08008KT P6SM FEW050 BKN250=

Latest METAR

427
SAUS70 KWBC 291900 RRG
MTRILM
METAR KILM 291853Z 04009KT 10SM FEW039 29/20 A3015 RMK AO2 SLP209
T02940200


USA.gov is the U.S. government's official web portal to all federal, state and local government web resources and services.